Blake, Ohio
Current Conditions -  °F | °C
As of 5:56 PM on Saturday 25 Oct 2014 (Local Time) from KBJJ Reporting Station
Clear Clear  
Wind Chill: 69°   Ceiling: Unl
Heat Index: 69°   Visibility: 10mi
Dew Point: 46°   Wind: 15mph
Humidity: 44%   Direction: 290°WNW
Pressure: 29.78"   Gusts: 29mph
Location:  41.0285°N, 81.8751°W
Report Text: KBJJ 252156Z AUTO 29013G25KT 10SM CLR 21/08 A2978 RMK AO2 SLP085 T02060078 TSNO
Loading
Personal Weather Stations






























Interactive Weather Map
Tropical Storm Tracking
New forecast layout! Learn more

10-Day Weather Forecast

Advertisements
Track Severe Weather on mobile